createdAt,value
2022-11-19T00:00:42.430Z,3.53
2022-11-19T00:05:46.249Z,6.28
2022-11-19T00:10:47.733Z,3.80
2022-11-19T00:15:49.154Z,5.63
2022-11-19T00:20:50.955Z,6.82
2022-11-19T00:25:52.349Z,4.35
2022-11-19T00:30:53.781Z,6.95
2022-11-19T00:35:56.560Z,5.22
2022-11-19T00:40:58.026Z,4.25
2022-11-19T00:45:59.435Z,5.75
2022-11-19T00:51:00.862Z,4.63
2022-11-19T00:56:13.001Z,3.83
2022-11-19T01:01:16.096Z,4.30
2022-11-19T01:06:20.442Z,4.70
2022-11-19T01:11:24.817Z,4.80
2022-11-19T01:16:35.762Z,8.27
2022-11-19T01:21:37.696Z,6.22
2022-11-19T01:26:44.297Z,6.80
2022-11-19T01:31:48.245Z,2.67
2022-11-19T01:36:49.738Z,4.60
2022-11-19T01:41:51.133Z,6.38
2022-11-19T01:46:52.587Z,7.15
2022-11-19T01:52:00.577Z,3.80
2022-11-19T01:57:06.424Z,4.07
2022-11-19T02:02:07.994Z,4.05
2022-11-19T02:07:11.758Z,4.15
2022-11-19T02:12:40.483Z,6.03
2022-11-19T02:18:13.023Z,4.07
2022-11-19T02:23:46.755Z,5.10
2022-11-19T02:28:52.805Z,7.65
2022-11-19T02:33:57.675Z,4.57
2022-11-19T02:39:20.695Z,6.63
2022-11-19T02:45:00.753Z,2.97
2022-11-19T02:50:09.590Z,4.73
2022-11-19T02:55:21.446Z,3.47
2022-11-19T03:00:41.914Z,5.20
2022-11-19T03:05:49.598Z,2.55
2022-11-19T03:11:04.323Z,6.10
2022-11-19T03:16:30.768Z,7.40
2022-11-19T03:21:40.315Z,11.77
2022-11-19T03:26:49.051Z,4.53
2022-11-19T03:31:58.419Z,5.63
2022-11-19T03:37:03.530Z,6.97
2022-11-19T03:42:09.758Z,6.13
2022-11-19T03:47:16.564Z,10.02
2022-11-19T03:52:20.811Z,8.75
2022-11-19T03:57:25.118Z,9.60
2022-11-19T04:02:26.807Z,7.50
2022-11-19T04:07:28.279Z,9.90
2022-11-19T04:12:29.785Z,7.07
2022-11-19T04:17:31.238Z,6.70
2022-11-19T04:22:32.747Z,8.48
2022-11-19T04:27:34.192Z,10.00
2022-11-19T04:32:35.701Z,6.35
2022-11-19T04:37:37.195Z,10.00
2022-11-19T04:42:38.699Z,8.63
2022-11-19T04:47:40.184Z,9.80
2022-11-19T04:52:44.044Z,8.00
2022-11-19T04:57:46.191Z,8.85
2022-11-19T05:02:47.663Z,8.43
2022-11-19T05:07:49.123Z,8.75
2022-11-19T05:12:53.399Z,9.07
2022-11-19T05:17:55.026Z,11.30
2022-11-19T05:22:56.602Z,8.85
2022-11-19T05:27:58.034Z,10.77
2022-11-19T05:32:59.472Z,8.23
2022-11-19T05:38:01.495Z,12.90
2022-11-19T05:43:09.859Z,7.88
2022-11-19T05:48:11.289Z,10.40
2022-11-19T05:53:12.916Z,8.20
2022-11-19T05:58:14.450Z,13.30
2022-11-19T06:03:16.099Z,8.80
2022-11-19T06:08:18.140Z,12.18
2022-11-19T06:13:20.064Z,8.95
2022-11-19T06:18:21.589Z,12.00
2022-11-19T06:23:23.056Z,7.82
2022-11-19T06:28:24.540Z,10.05
2022-11-19T06:33:26.075Z,10.20
2022-11-19T06:38:27.574Z,9.73
2022-11-19T06:43:29.137Z,13.98
2022-11-19T06:48:30.685Z,13.25
2022-11-19T06:53:33.223Z,8.00
2022-11-19T06:58:34.881Z,8.00
2022-11-19T07:03:36.486Z,11.30
2022-11-19T07:08:39.388Z,7.50
2022-11-19T07:13:59.643Z,9.82
2022-11-19T07:19:06.555Z,9.05
2022-11-19T07:24:10.189Z,13.88
2022-11-19T07:29:14.009Z,11.90
2022-11-19T07:34:15.522Z,11.50
2022-11-19T07:39:17.727Z,11.23
2022-11-19T07:44:19.811Z,9.20
2022-11-19T07:49:21.761Z,7.15
2022-11-19T07:54:23.556Z,9.85
2022-11-19T07:59:27.018Z,9.32
2022-11-19T08:04:29.232Z,9.38
2022-11-19T08:09:30.723Z,7.97
2022-11-19T08:14:32.280Z,7.75
2022-11-19T08:19:33.779Z,7.10
2022-11-19T08:24:35.286Z,11.05
2022-11-19T08:29:36.795Z,13.80
2022-11-19T08:34:38.488Z,10.18
2022-11-19T08:39:40.613Z,7.90
2022-11-19T08:44:42.218Z,4.60
2022-11-19T08:49:44.140Z,10.88
2022-11-19T08:54:45.661Z,9.05
2022-11-19T08:59:47.216Z,9.63
2022-11-19T09:04:48.765Z,11.20
2022-11-19T09:09:50.221Z,7.13
2022-11-19T09:14:51.971Z,6.25
2022-11-19T09:19:53.423Z,8.65
2022-11-19T09:24:54.882Z,10.02
2022-11-19T09:29:56.446Z,8.02
2022-11-19T09:34:57.998Z,11.60
2022-11-19T09:40:00.356Z,8.63
2022-11-19T09:45:17.234Z,12.73
2022-11-19T09:50:23.025Z,6.78
2022-11-19T09:55:37.021Z,9.73
2022-11-19T10:00:38.845Z,6.20
2022-11-19T10:06:05.502Z,5.97
2022-11-19T10:11:22.474Z,5.53
2022-11-19T10:16:53.815Z,5.47
2022-11-19T10:22:08.237Z,5.32
2022-11-19T10:27:26.151Z,5.05
2022-11-19T10:32:33.074Z,5.82
2022-11-19T10:37:41.209Z,4.72
2022-11-19T10:42:49.981Z,7.75
2022-11-19T10:48:08.858Z,6.47
2022-11-19T10:53:20.229Z,6.97
2022-11-19T10:58:39.144Z,9.30
2022-11-19T11:03:58.424Z,7.28
2022-11-19T11:08:59.988Z,5.35
2022-11-19T11:14:33.914Z,10.25
2022-11-19T11:19:35.691Z,6.90
2022-11-19T11:24:38.853Z,5.78
2022-11-19T11:29:40.337Z,5.30
2022-11-19T11:34:43.851Z,6.15
2022-11-19T11:39:50.671Z,6.53
2022-11-19T11:44:56.118Z,5.45
2022-11-19T11:50:14.962Z,6.13
2022-11-19T11:55:25.320Z,7.97
2022-11-19T12:00:37.255Z,6.30
2022-11-19T12:05:44.950Z,7.47
2022-11-19T12:11:15.267Z,5.80
2022-11-19T12:16:21.778Z,8.70
2022-11-19T12:21:50.623Z,5.65
2022-11-19T12:27:04.616Z,8.90
2022-11-19T12:32:15.158Z,4.88
2022-11-19T12:43:09.745Z,9.90
2022-11-19T12:48:39.219Z,10.57
2022-11-19T12:54:02.255Z,6.28
2022-11-19T12:59:35.552Z,7.55
2022-11-19T13:04:45.761Z,7.03
2022-11-19T13:10:00.773Z,10.23
2022-11-19T13:15:24.452Z,6.30
2022-11-19T13:20:40.919Z,7.28
2022-11-19T13:25:50.406Z,6.35
2022-11-19T13:31:08.931Z,9.18
2022-11-19T13:36:25.028Z,14.43
2022-11-19T13:42:03.171Z,12.35
2022-11-19T13:47:12.682Z,10.68
2022-11-19T13:52:23.421Z,49.78
2022-11-19T13:57:33.240Z,10.55
2022-11-19T14:02:53.140Z,7.23
2022-11-19T14:08:03.818Z,7.60
2022-11-19T14:13:31.326Z,8.25
2022-11-19T14:19:02.088Z,10.75
2022-11-19T14:24:45.068Z,23.55
2022-11-19T14:29:46.538Z,17.48
2022-11-19T14:35:13.863Z,11.70
2022-11-19T14:40:17.655Z,13.55
2022-11-19T14:45:19.835Z,9.63
2022-11-19T14:50:26.850Z,11.18
2022-11-19T14:55:34.572Z,10.40
2022-11-19T15:00:41.472Z,9.13
2022-11-19T15:05:46.165Z,13.43
2022-11-19T15:11:14.747Z,12.75
2022-11-19T15:16:20.097Z,16.85
2022-11-19T15:21:30.526Z,7.15
2022-11-19T15:26:50.948Z,7.05
2022-11-19T15:32:13.357Z,7.28
2022-11-19T15:37:19.211Z,14.82
2022-11-19T15:42:30.079Z,6.93
2022-11-19T15:52:42.603Z,7.07
2022-11-19T15:57:46.299Z,7.65
2022-11-19T16:02:50.897Z,9.52
2022-11-19T16:07:53.335Z,7.65
2022-11-19T16:13:18.750Z,8.00
2022-11-19T16:18:20.270Z,6.13
2022-11-19T16:23:24.795Z,8.70
2022-11-19T16:28:30.523Z,12.27
2022-11-19T16:33:34.103Z,11.90
2022-11-19T16:38:36.621Z,22.52
2022-11-19T16:43:40.707Z,14.60
2022-11-19T16:48:50.900Z,13.07
2022-11-19T16:53:52.839Z,14.00
2022-11-19T16:59:01.727Z,17.25
2022-11-19T17:04:07.475Z,12.40
2022-11-19T17:09:29.626Z,8.45
2022-11-19T17:14:31.326Z,6.53
2022-11-19T17:19:34.609Z,11.82
2022-11-19T17:24:42.719Z,8.93
2022-11-19T17:29:45.414Z,17.55
2022-11-19T17:34:51.158Z,7.10
2022-11-19T17:39:52.696Z,9.02
2022-11-19T17:44:54.201Z,5.05
2022-11-19T17:49:55.669Z,8.07
2022-11-19T17:55:02.039Z,6.70
2022-11-19T18:00:04.364Z,6.75
2022-11-19T18:05:23.297Z,6.45
2022-11-19T18:10:24.988Z,7.70
2022-11-19T18:15:26.510Z,7.47
2022-11-19T18:20:28.241Z,8.00
2022-11-19T18:25:29.728Z,10.90
2022-11-19T18:30:31.190Z,9.57
2022-11-19T18:35:33.080Z,12.73
2022-11-19T18:40:35.717Z,9.50
2022-11-19T18:45:37.178Z,11.93
2022-11-19T18:50:38.727Z,8.40
2022-11-19T18:55:40.149Z,10.40
2022-11-19T19:00:42.963Z,11.40
2022-11-19T19:05:44.400Z,10.38
2022-11-19T19:10:45.818Z,16.10
2022-11-19T19:15:47.289Z,11.32
2022-11-19T19:20:48.714Z,9.32
2022-11-19T19:25:50.182Z,10.57
2022-11-19T19:30:57.658Z,9.18
2022-11-19T19:35:59.178Z,9.95
2022-11-19T19:41:10.052Z,10.73
2022-11-19T19:46:15.295Z,8.38
2022-11-19T19:51:17.884Z,7.78
2022-11-19T19:56:22.305Z,12.38
2022-11-19T20:01:27.193Z,12.68
2022-11-19T20:06:30.327Z,12.02
2022-11-19T20:11:31.861Z,13.32
2022-11-19T20:16:34.025Z,13.60
2022-11-19T20:21:36.637Z,16.33
2022-11-19T20:26:39.434Z,12.82
2022-11-19T20:31:45.459Z,14.82
2022-11-19T20:36:46.949Z,16.00
2022-11-19T20:42:06.760Z,15.80
2022-11-19T20:47:08.212Z,15.37
2022-11-19T20:52:10.788Z,15.55
2022-11-19T20:57:12.308Z,16.40
2022-11-19T21:02:13.840Z,21.27
2022-11-19T21:07:15.991Z,18.13
2022-11-19T21:12:17.580Z,16.58
2022-11-19T21:17:19.026Z,15.55
2022-11-19T21:22:20.461Z,23.80
2022-11-19T21:27:21.912Z,18.08
2022-11-19T21:32:23.342Z,25.73
2022-11-19T21:37:24.785Z,37.05
2022-11-19T21:42:26.241Z,32.92
2022-11-19T21:47:27.977Z,23.02
2022-11-19T21:52:29.691Z,24.52
2022-11-19T21:57:31.187Z,20.05
2022-11-19T22:02:32.910Z,20.65
2022-11-19T22:07:34.487Z,20.35
2022-11-19T22:12:35.969Z,20.35
2022-11-19T22:17:38.302Z,20.17
2022-11-19T22:22:44.974Z,21.98
2022-11-19T22:27:46.444Z,23.85
2022-11-19T22:32:47.890Z,16.65
2022-11-19T22:37:49.371Z,23.55
2022-11-19T22:42:50.821Z,15.38
2022-11-19T22:47:52.270Z,15.43
2022-11-19T22:52:53.698Z,14.90
2022-11-19T22:57:55.141Z,16.88
2022-11-19T23:02:56.581Z,20.38
2022-11-19T23:07:58.078Z,13.30
2022-11-19T23:13:22.413Z,17.20
2022-11-19T23:18:23.912Z,17.92
2022-11-19T23:23:25.559Z,15.45
2022-11-19T23:28:28.788Z,16.58
2022-11-19T23:33:30.306Z,13.18
2022-11-19T23:38:31.998Z,16.83
2022-11-19T23:43:34.133Z,13.15
2022-11-19T23:48:36.615Z,15.52
2022-11-19T23:53:38.187Z,13.32
2022-11-19T23:58:40.017Z,11.13
